Loveland, Colorado
Current Conditions -  °F | °C
As of 9:55 PM on Thursday 30 Oct 2014 (Local Time) from KFNL Reporting Station
Clear Clear  
Wind Chill: 46°   Ceiling: Unl
Heat Index: 48°   Visibility: 10mi
Dew Point: 27°   Wind: 6mph
Humidity: 43%   Direction: 170°S
Pressure: 30.42"   Gusts: NA
Location:  40.39°N, 105.07°W
Report Text: KFNL 310355Z AUTO 17005KT 10SM CLR 09/M03 A3042 RMK AO1
Loading
Personal Weather Stations






























Interactive Weather Map New forecast layout! Learn more

10-Day Weather Forecast

Advertisements
Track Severe Weather on mobile